Lynx, Ohio
Current Conditions -  °F | °C
As of 8:35 AM on Friday 24 Oct 2014 (Local Time) from KFGX Reporting Station
Clear Clear  
Wind Chill: 42°   Ceiling: Unl
Heat Index: 42°   Visibility: 7mi
Dew Point: 41°   Wind: 0mph
Humidity: 98%   Direction: NA
Pressure: 30.15"   Gusts: NA
Location:  38.77°N, 83.41°W
Report Text: KFGX 241235Z AUTO 00000KT 7SM CLR 05/05 A3015 RMK AO2 T00530050
Loading
Personal Weather Stations






























Interactive Weather Map
Tropical Storm Tracking
New forecast layout! Learn more

10-Day Weather Forecast

Advertisements
Track Severe Weather on mobile